sensor_id;sensor_type;location;lat;lon;timestamp;temperature;humidity
25192;DHT22;13143;50.924;5.320;2023-09-07T00:01:49;24.30;99.90
25192;DHT22;13143;50.924;5.320;2023-09-07T00:04:14;24.30;99.90
25192;DHT22;13143;50.924;5.320;2023-09-07T00:06:41;24.30;99.90
25192;DHT22;13143;50.924;5.320;2023-09-07T00:09:09;24.20;99.90
25192;DHT22;13143;50.924;5.320;2023-09-07T00:11:37;24.30;99.90
25192;DHT22;13143;50.924;5.320;2023-09-07T00:14:03;24.20;99.90
25192;DHT22;13143;50.924;5.320;2023-09-07T00:16:31;24.20;99.90
25192;DHT22;13143;50.924;5.320;2023-09-07T00:19:01;24.20;99.90
25192;DHT22;13143;50.924;5.320;2023-09-07T00:21:28;24.20;99.90
25192;DHT22;13143;50.924;5.320;2023-09-07T00:23:53;24.20;99.90
25192;DHT22;13143;50.924;5.320;2023-09-07T00:26:20;24.10;99.90
25192;DHT22;13143;50.924;5.320;2023-09-07T00:28:46;24.10;99.90
25192;DHT22;13143;50.924;5.320;2023-09-07T00:31:12;24.00;99.90
25192;DHT22;13143;50.924;5.320;2023-09-07T00:33:37;24.00;99.90
25192;DHT22;13143;50.924;5.320;2023-09-07T00:36:03;24.00;99.90
25192;DHT22;13143;50.924;5.320;2023-09-07T00:38:29;24.00;99.90
25192;DHT22;13143;50.924;5.320;2023-09-07T00:40:55;24.00;99.90
25192;DHT22;13143;50.924;5.320;2023-09-07T00:43:20;23.90;99.90
25192;DHT22;13143;50.924;5.320;2023-09-07T00:45:46;23.90;99.90
25192;DHT22;13143;50.924;5.320;2023-09-07T00:48:13;23.90;99.90
25192;DHT22;13143;50.924;5.320;2023-09-07T00:50:40;23.80;99.90
25192;DHT22;13143;50.924;5.320;2023-09-07T00:53:05;23.80;99.90
25192;DHT22;13143;50.924;5.320;2023-09-07T00:55:33;23.80;99.90
25192;DHT22;13143;50.924;5.320;2023-09-07T00:58:00;23.80;99.90
25192;DHT22;13143;50.924;5.320;2023-09-07T01:00:26;23.80;99.90
25192;DHT22;13143;50.924;5.320;2023-09-07T01:02:52;23.70;99.90
25192;DHT22;13143;50.924;5.320;2023-09-07T01:05:21;23.70;99.90
25192;DHT22;13143;50.924;5.320;2023-09-07T01:07:53;23.60;99.90
25192;DHT22;13143;50.924;5.320;2023-09-07T01:10:19;23.70;99.90
25192;DHT22;13143;50.924;5.320;2023-09-07T01:12:47;23.60;99.90
25192;DHT22;13143;50.924;5.320;2023-09-07T01:15:12;23.60;99.90
25192;DHT22;13143;50.924;5.320;2023-09-07T01:17:38;23.50;99.90
25192;DHT22;13143;50.924;5.320;2023-09-07T01:20:05;23.50;99.90
25192;DHT22;13143;50.924;5.320;2023-09-07T01:22:35;23.50;99.90
25192;DHT22;13143;50.924;5.320;2023-09-07T01:25:02;23.50;99.90
25192;DHT22;13143;50.924;5.320;2023-09-07T01:27:28;23.40;99.90
25192;DHT22;13143;50.924;5.320;2023-09-07T01:29:54;23.40;99.90
25192;DHT22;13143;50.924;5.320;2023-09-07T01:32:20;23.40;99.90
25192;DHT22;13143;50.924;5.320;2023-09-07T01:34:45;23.40;99.90
25192;DHT22;13143;50.924;5.320;2023-09-07T01:37:11;23.30;99.90
25192;DHT22;13143;50.924;5.320;2023-09-07T01:39:37;23.30;99.90
25192;DHT22;13143;50.924;5.320;2023-09-07T01:42:03;23.30;99.90
25192;DHT22;13143;50.924;5.320;2023-09-07T01:44:28;23.30;99.90
25192;DHT22;13143;50.924;5.320;2023-09-07T01:46:55;23.30;99.90
25192;DHT22;13143;50.924;5.320;2023-09-07T01:49:20;23.20;99.90
25192;DHT22;13143;50.924;5.320;2023-09-07T01:51:46;23.20;99.90
25192;DHT22;13143;50.924;5.320;2023-09-07T01:54:12;23.20;99.90
25192;DHT22;13143;50.924;5.320;2023-09-07T01:56:38;23.20;99.90
25192;DHT22;13143;50.924;5.320;2023-09-07T01:59:06;23.10;99.90
25192;DHT22;13143;50.924;5.320;2023-09-07T02:01:32;23.10;99.90
25192;DHT22;13143;50.924;5.320;2023-09-07T02:04:02;23.10;99.90
25192;DHT22;13143;50.924;5.320;2023-09-07T02:06:28;23.10;99.90
25192;DHT22;13143;50.924;5.320;2023-09-07T02:08:54;23.10;99.90
25192;DHT22;13143;50.924;5.320;2023-09-07T02:11:19;23.00;99.90
25192;DHT22;13143;50.924;5.320;2023-09-07T02:13:47;23.00;99.90
25192;DHT22;13143;50.924;5.320;2023-09-07T02:16:13;23.00;99.90
25192;DHT22;13143;50.924;5.320;2023-09-07T02:18:38;22.90;99.90
25192;DHT22;13143;50.924;5.320;2023-09-07T02:21:09;22.90;99.90
25192;DHT22;13143;50.924;5.320;2023-09-07T02:23:35;22.90;99.90
25192;DHT22;13143;50.924;5.320;2023-09-07T02:26:03;22.90;99.90
25192;DHT22;13143;50.924;5.320;2023-09-07T02:28:29;22.90;99.90
25192;DHT22;13143;50.924;5.320;2023-09-07T02:30:55;22.90;99.90
25192;DHT22;13143;50.924;5.320;2023-09-07T02:33:27;22.80;99.90
25192;DHT22;13143;50.924;5.320;2023-09-07T02:35:53;22.80;99.90
25192;DHT22;13143;50.924;5.320;2023-09-07T02:38:19;22.80;99.90
25192;DHT22;13143;50.924;5.320;2023-09-07T02:40:45;22.80;99.90
25192;DHT22;13143;50.924;5.320;2023-09-07T02:43:11;22.70;99.90
25192;DHT22;13143;50.924;5.320;2023-09-07T02:45:37;22.70;99.90
25192;DHT22;13143;50.924;5.320;2023-09-07T02:48:03;22.70;99.90
25192;DHT22;13143;50.924;5.320;2023-09-07T02:50:31;22.70;99.90
25192;DHT22;13143;50.924;5.320;2023-09-07T02:52:57;22.70;99.90
25192;DHT22;13143;50.924;5.320;2023-09-07T02:55:23;22.60;99.90
25192;DHT22;13143;50.924;5.320;2023-09-07T02:57:49;22.60;99.90
25192;DHT22;13143;50.924;5.320;2023-09-07T03:00:15;22.60;99.90
25192;DHT22;13143;50.924;5.320;2023-09-07T03:02:43;22.60;99.90
25192;DHT22;13143;50.924;5.320;2023-09-07T03:05:09;22.60;99.90
25192;DHT22;13143;50.924;5.320;2023-09-07T03:07:35;22.60;99.90
25192;DHT22;13143;50.924;5.320;2023-09-07T03:10:01;22.60;99.90
25192;DHT22;13143;50.924;5.320;2023-09-07T03:12:27;22.50;99.90
25192;DHT22;13143;50.924;5.320;2023-09-07T03:14:53;22.50;99.90
25192;DHT22;13143;50.924;5.320;2023-09-07T03:17:19;22.50;99.90
25192;DHT22;13143;50.924;5.320;2023-09-07T03:19:46;22.40;99.90
25192;DHT22;13143;50.924;5.320;2023-09-07T03:22:12;22.40;99.90
25192;DHT22;13143;50.924;5.320;2023-09-07T03:24:38;22.40;99.90
25192;DHT22;13143;50.924;5.320;2023-09-07T03:27:04;22.40;99.90
25192;DHT22;13143;50.924;5.320;2023-09-07T03:29:34;22.40;99.90
25192;DHT22;13143;50.924;5.320;2023-09-07T03:32:01;22.30;99.90
25192;DHT22;13143;50.924;5.320;2023-09-07T03:34:27;22.30;99.90
25192;DHT22;13143;50.924;5.320;2023-09-07T03:36:52;22.30;99.90
25192;DHT22;13143;50.924;5.320;2023-09-07T03:39:18;22.30;99.90
25192;DHT22;13143;50.924;5.320;2023-09-07T03:41:46;22.20;99.90
25192;DHT22;13143;50.924;5.320;2023-09-07T03:44:12;22.20;99.90
25192;DHT22;13143;50.924;5.320;2023-09-07T03:46:38;22.20;99.90
25192;DHT22;13143;50.924;5.320;2023-09-07T03:49:04;22.20;99.90
25192;DHT22;13143;50.924;5.320;2023-09-07T03:51:30;22.20;99.90
25192;DHT22;13143;50.924;5.320;2023-09-07T03:53:56;22.10;99.90
25192;DHT22;13143;50.924;5.320;2023-09-07T03:56:22;22.20;99.90
25192;DHT22;13143;50.924;5.320;2023-09-07T03:58:47;22.10;99.90
25192;DHT22;13143;50.924;5.320;2023-09-07T04:01:13;22.10;99.90
25192;DHT22;13143;50.924;5.320;2023-09-07T04:03:39;22.00;99.90
25192;DHT22;13143;50.924;5.320;2023-09-07T04:06:07;22.00;99.90
25192;DHT22;13143;50.924;5.320;2023-09-07T04:08:33;22.00;99.90
25192;DHT22;13143;50.924;5.320;2023-09-07T04:11:03;22.00;99.90
25192;DHT22;13143;50.924;5.320;2023-09-07T04:13:29;22.00;99.90
25192;DHT22;13143;50.924;5.320;2023-09-07T04:15:55;21.90;99.90
25192;DHT22;13143;50.924;5.320;2023-09-07T04:18:21;21.90;99.90
25192;DHT22;13143;50.924;5.320;2023-09-07T04:20:46;21.90;99.90
25192;DHT22;13143;50.924;5.320;2023-09-07T04:23:12;21.90;99.90
25192;DHT22;13143;50.924;5.320;2023-09-07T04:25:38;21.90;99.90
25192;DHT22;13143;50.924;5.320;2023-09-07T04:28:07;21.80;99.90
25192;DHT22;13143;50.924;5.320;2023-09-07T04:30:42;21.80;99.90
25192;DHT22;13143;50.924;5.320;2023-09-07T04:33:08;21.80;99.90
25192;DHT22;13143;50.924;5.320;2023-09-07T04:35:33;21.80;99.90
25192;DHT22;13143;50.924;5.320;2023-09-07T04:37:59;21.70;99.90
25192;DHT22;13143;50.924;5.320;2023-09-07T04:40:25;21.70;99.90
25192;DHT22;13143;50.924;5.320;2023-09-07T04:42:51;21.70;99.90
25192;DHT22;13143;50.924;5.320;2023-09-07T04:45:17;21.60;99.90
25192;DHT22;13143;50.924;5.320;2023-09-07T04:47:43;21.60;99.90
25192;DHT22;13143;50.924;5.320;2023-09-07T04:50:09;21.60;99.90
25192;DHT22;13143;50.924;5.320;2023-09-07T04:52:35;21.50;99.90
25192;DHT22;13143;50.924;5.320;2023-09-07T04:55:01;21.50;99.90
25192;DHT22;13143;50.924;5.320;2023-09-07T04:57:27;21.50;99.90
25192;DHT22;13143;50.924;5.320;2023-09-07T04:59:52;21.50;99.90
25192;DHT22;13143;50.924;5.320;2023-09-07T05:02:18;21.40;99.90
25192;DHT22;13143;50.924;5.320;2023-09-07T05:04:44;21.40;99.90
25192;DHT22;13143;50.924;5.320;2023-09-07T05:07:10;21.40;99.90
25192;DHT22;13143;50.924;5.320;2023-09-07T05:09:36;21.40;99.90
25192;DHT22;13143;50.924;5.320;2023-09-07T05:12:02;21.40;99.90
25192;DHT22;13143;50.924;5.320;2023-09-07T05:14:28;21.30;99.90
25192;DHT22;13143;50.924;5.320;2023-09-07T05:16:55;21.30;99.90
25192;DHT22;13143;50.924;5.320;2023-09-07T05:19:22;21.30;99.90
25192;DHT22;13143;50.924;5.320;2023-09-07T05:21:48;21.20;99.90
25192;DHT22;13143;50.924;5.320;2023-09-07T05:24:14;21.20;99.90
25192;DHT22;13143;50.924;5.320;2023-09-07T05:26:43;21.20;99.90
25192;DHT22;13143;50.924;5.320;2023-09-07T05:29:09;21.20;99.90
25192;DHT22;13143;50.924;5.320;2023-09-07T05:31:35;21.20;99.90
25192;DHT22;13143;50.924;5.320;2023-09-07T05:34:01;21.10;99.90
25192;DHT22;13143;50.924;5.320;2023-09-07T05:36:27;21.10;99.90
25192;DHT22;13143;50.924;5.320;2023-09-07T05:38:53;21.10;99.90
25192;DHT22;13143;50.924;5.320;2023-09-07T05:41:18;21.10;99.90
25192;DHT22;13143;50.924;5.320;2023-09-07T05:43:45;21.00;99.90
25192;DHT22;13143;50.924;5.320;2023-09-07T05:46:10;21.00;99.90
25192;DHT22;13143;50.924;5.320;2023-09-07T05:48:36;21.00;99.90
25192;DHT22;13143;50.924;5.320;2023-09-07T05:51:02;21.00;99.90
25192;DHT22;13143;50.924;5.320;2023-09-07T05:53:27;21.00;99.90
25192;DHT22;13143;50.924;5.320;2023-09-07T05:55:53;21.00;99.90
25192;DHT22;13143;50.924;5.320;2023-09-07T05:58:19;21.00;99.90
25192;DHT22;13143;50.924;5.320;2023-09-07T06:00:45;20.90;99.90
25192;DHT22;13143;50.924;5.320;2023-09-07T06:03:11;20.90;99.90
25192;DHT22;13143;50.924;5.320;2023-09-07T06:05:37;20.90;99.90
25192;DHT22;13143;50.924;5.320;2023-09-07T06:08:04;20.90;99.90
25192;DHT22;13143;50.924;5.320;2023-09-07T06:10:31;20.90;99.90
25192;DHT22;13143;50.924;5.320;2023-09-07T06:12:57;20.90;99.90
25192;DHT22;13143;50.924;5.320;2023-09-07T06:15:23;20.90;99.90
25192;DHT22;13143;50.924;5.320;2023-09-07T06:17:49;20.90;99.90
25192;DHT22;13143;50.924;5.320;2023-09-07T06:20:15;20.90;99.90
25192;DHT22;13143;50.924;5.320;2023-09-07T06:22:41;20.90;99.90
25192;DHT22;13143;50.924;5.320;2023-09-07T06:25:07;20.80;99.90
25192;DHT22;13143;50.924;5.320;2023-09-07T06:27:33;20.80;99.90
25192;DHT22;13143;50.924;5.320;2023-09-07T06:29:59;20.80;99.90
25192;DHT22;13143;50.924;5.320;2023-09-07T06:32:24;20.80;99.90
25192;DHT22;13143;50.924;5.320;2023-09-07T06:34:50;20.80;99.90
25192;DHT22;13143;50.924;5.320;2023-09-07T06:37:17;20.80;99.90
25192;DHT22;13143;50.924;5.320;2023-09-07T06:39:42;20.80;99.90
25192;DHT22;13143;50.924;5.320;2023-09-07T06:42:09;20.80;99.90
25192;DHT22;13143;50.924;5.320;2023-09-07T06:44:35;20.80;99.90
25192;DHT22;13143;50.924;5.320;2023-09-07T06:47:01;20.80;99.90
25192;DHT22;13143;50.924;5.320;2023-09-07T06:49:27;20.80;99.90
25192;DHT22;13143;50.924;5.320;2023-09-07T06:52:10;20.80;99.90
25192;DHT22;13143;50.924;5.320;2023-09-07T06:54:35;20.80;99.90
25192;DHT22;13143;50.924;5.320;2023-09-07T06:57:01;20.90;99.90
25192;DHT22;13143;50.924;5.320;2023-09-07T06:59:27;20.90;99.90
25192;DHT22;13143;50.924;5.320;2023-09-07T07:01:53;20.90;99.90
25192;DHT22;13143;50.924;5.320;2023-09-07T07:04:19;20.90;99.90
25192;DHT22;13143;50.924;5.320;2023-09-07T07:06:44;20.90;99.90
25192;DHT22;13143;50.924;5.320;2023-09-07T07:09:13;20.90;99.90
25192;DHT22;13143;50.924;5.320;2023-09-07T07:11:39;20.90;99.90
25192;DHT22;13143;50.924;5.320;2023-09-07T07:14:05;20.90;99.90
25192;DHT22;13143;50.924;5.320;2023-09-07T07:16:30;20.90;99.90
25192;DHT22;13143;50.924;5.320;2023-09-07T07:18:56;20.90;99.90
25192;DHT22;13143;50.924;5.320;2023-09-07T07:21:21;21.00;99.90
25192;DHT22;13143;50.924;5.320;2023-09-07T07:23:47;21.00;99.90
25192;DHT22;13143;50.924;5.320;2023-09-07T07:26:13;21.00;99.90
25192;DHT22;13143;50.924;5.320;2023-09-07T07:28:39;21.00;99.90
25192;DHT22;13143;50.924;5.320;2023-09-07T07:31:08;21.00;99.90
25192;DHT22;13143;50.924;5.320;2023-09-07T07:33:35;21.00;99.90
25192;DHT22;13143;50.924;5.320;2023-09-07T07:36:00;21.10;99.90
25192;DHT22;13143;50.924;5.320;2023-09-07T07:38:26;21.10;99.90
25192;DHT22;13143;50.924;5.320;2023-09-07T07:40:52;21.10;99.90
25192;DHT22;13143;50.924;5.320;2023-09-07T07:43:18;21.10;99.90
25192;DHT22;13143;50.924;5.320;2023-09-07T07:45:44;21.20;99.90
25192;DHT22;13143;50.924;5.320;2023-09-07T07:48:10;21.20;99.90
25192;DHT22;13143;50.924;5.320;2023-09-07T07:50:40;21.20;99.90
25192;DHT22;13143;50.924;5.320;2023-09-07T07:53:06;21.20;99.90
25192;DHT22;13143;50.924;5.320;2023-09-07T07:55:36;21.20;99.90
25192;DHT22;13143;50.924;5.320;2023-09-07T07:58:06;21.30;99.90
25192;DHT22;13143;50.924;5.320;2023-09-07T08:00:36;21.30;99.90
25192;DHT22;13143;50.924;5.320;2023-09-07T08:03:02;21.30;99.90
25192;DHT22;13143;50.924;5.320;2023-09-07T08:05:32;21.30;99.90
25192;DHT22;13143;50.924;5.320;2023-09-07T08:07:58;21.40;99.90
25192;DHT22;13143;50.924;5.320;2023-09-07T08:10:24;21.40;99.90
25192;DHT22;13143;50.924;5.320;2023-09-07T08:12:54;21.40;99.90
25192;DHT22;13143;50.924;5.320;2023-09-07T08:15:20;21.50;99.90
25192;DHT22;13143;50.924;5.320;2023-09-07T08:17:48;21.50;99.90
25192;DHT22;13143;50.924;5.320;2023-09-07T08:20:14;21.50;99.90
25192;DHT22;13143;50.924;5.320;2023-09-07T08:22:40;21.50;99.90
25192;DHT22;13143;50.924;5.320;2023-09-07T08:25:09;21.60;99.90
25192;DHT22;13143;50.924;5.320;2023-09-07T08:27:34;21.60;99.90
25192;DHT22;13143;50.924;5.320;2023-09-07T08:30:00;21.60;99.90
25192;DHT22;13143;50.924;5.320;2023-09-07T08:32:26;21.70;99.90
25192;DHT22;13143;50.924;5.320;2023-09-07T08:34:51;21.70;99.90
25192;DHT22;13143;50.924;5.320;2023-09-07T08:37:21;21.70;99.90
25192;DHT22;13143;50.924;5.320;2023-09-07T08:39:47;21.70;99.90
25192;DHT22;13143;50.924;5.320;2023-09-07T08:42:13;21.80;99.90
25192;DHT22;13143;50.924;5.320;2023-09-07T08:44:40;21.80;99.90
25192;DHT22;13143;50.924;5.320;2023-09-07T08:47:08;21.90;99.90
25192;DHT22;13143;50.924;5.320;2023-09-07T08:49:34;21.90;99.90
25192;DHT22;13143;50.924;5.320;2023-09-07T08:52:02;22.00;99.90
25192;DHT22;13143;50.924;5.320;2023-09-07T08:54:28;22.00;99.90
25192;DHT22;13143;50.924;5.320;2023-09-07T08:56:56;22.00;99.90
25192;DHT22;13143;50.924;5.320;2023-09-07T08:59:22;22.00;99.90
25192;DHT22;13143;50.924;5.320;2023-09-07T09:01:48;22.10;99.90
25192;DHT22;13143;50.924;5.320;2023-09-07T09:04:14;22.10;99.90
25192;DHT22;13143;50.924;5.320;2023-09-07T09:06:41;22.20;99.90
25192;DHT22;13143;50.924;5.320;2023-09-07T09:09:06;22.20;99.90
25192;DHT22;13143;50.924;5.320;2023-09-07T09:11:32;22.20;99.90
25192;DHT22;13143;50.924;5.320;2023-09-07T09:13:58;22.30;99.90
25192;DHT22;13143;50.924;5.320;2023-09-07T09:16:23;22.30;99.90
25192;DHT22;13143;50.924;5.320;2023-09-07T09:18:50;22.30;99.90
25192;DHT22;13143;50.924;5.320;2023-09-07T09:21:22;22.30;99.90
25192;DHT22;13143;50.924;5.320;2023-09-07T09:23:50;22.40;99.90
25192;DHT22;13143;50.924;5.320;2023-09-07T09:26:16;22.50;99.90
25192;DHT22;13143;50.924;5.320;2023-09-07T09:28:43;22.50;99.90
25192;DHT22;13143;50.924;5.320;2023-09-07T09:31:12;22.50;99.90
25192;DHT22;13143;50.924;5.320;2023-09-07T09:33:41;22.60;99.90
25192;DHT22;13143;50.924;5.320;2023-09-07T09:36:08;22.60;99.90
25192;DHT22;13143;50.924;5.320;2023-09-07T09:38:35;22.70;99.90
25192;DHT22;13143;50.924;5.320;2023-09-07T09:41:01;22.70;99.90
25192;DHT22;13143;50.924;5.320;2023-09-07T09:43:28;22.80;99.90
25192;DHT22;13143;50.924;5.320;2023-09-07T09:45:55;22.80;99.90
25192;DHT22;13143;50.924;5.320;2023-09-07T09:48:20;22.80;99.90
25192;DHT22;13143;50.924;5.320;2023-09-07T09:50:47;22.90;99.90
25192;DHT22;13143;50.924;5.320;2023-09-07T09:53:18;23.00;99.90
25192;DHT22;13143;50.924;5.320;2023-09-07T09:55:48;23.00;99.90
25192;DHT22;13143;50.924;5.320;2023-09-07T09:58:15;23.10;99.90
25192;DHT22;13143;50.924;5.320;2023-09-07T10:00:46;23.10;99.90
25192;DHT22;13143;50.924;5.320;2023-09-07T10:03:29;23.10;99.90
25192;DHT22;13143;50.924;5.320;2023-09-07T10:06:10;23.20;99.90
25192;DHT22;13143;50.924;5.320;2023-09-07T10:08:36;23.20;99.90
25192;DHT22;13143;50.924;5.320;2023-09-07T10:11:08;23.20;99.90
25192;DHT22;13143;50.924;5.320;2023-09-07T10:13:34;23.30;99.90
25192;DHT22;13143;50.924;5.320;2023-09-07T10:16:04;23.40;99.90
25192;DHT22;13143;50.924;5.320;2023-09-07T10:18:35;23.40;99.90
25192;DHT22;13143;50.924;5.320;2023-09-07T10:21:01;23.50;99.90
25192;DHT22;13143;50.924;5.320;2023-09-07T10:23:44;23.50;99.90
25192;DHT22;13143;50.924;5.320;2023-09-07T10:26:15;23.60;99.90
25192;DHT22;13143;50.924;5.320;2023-09-07T10:28:41;23.60;99.90
25192;DHT22;13143;50.924;5.320;2023-09-07T10:31:17;23.60;99.90
25192;DHT22;13143;50.924;5.320;2023-09-07T10:33:43;23.70;99.90
25192;DHT22;13143;50.924;5.320;2023-09-07T10:36:23;23.70;99.90
25192;DHT22;13143;50.924;5.320;2023-09-07T10:38:49;23.80;99.90
25192;DHT22;13143;50.924;5.320;2023-09-07T10:41:17;23.80;99.90
25192;DHT22;13143;50.924;5.320;2023-09-07T10:43:54;23.80;99.90
25192;DHT22;13143;50.924;5.320;2023-09-07T10:46:23;23.90;99.90
25192;DHT22;13143;50.924;5.320;2023-09-07T10:48:53;24.00;99.90
25192;DHT22;13143;50.924;5.320;2023-09-07T10:51:20;24.00;99.90
25192;DHT22;13143;50.924;5.320;2023-09-07T10:53:45;24.00;99.90
25192;DHT22;13143;50.924;5.320;2023-09-07T10:56:12;24.00;99.90
25192;DHT22;13143;50.924;5.320;2023-09-07T10:58:38;24.10;99.90
25192;DHT22;13143;50.924;5.320;2023-09-07T11:01:08;24.10;99.90
25192;DHT22;13143;50.924;5.320;2023-09-07T11:03:35;24.10;99.90
25192;DHT22;13143;50.924;5.320;2023-09-07T11:06:09;24.20;99.90
25192;DHT22;13143;50.924;5.320;2023-09-07T11:08:36;24.20;99.90
25192;DHT22;13143;50.924;5.320;2023-09-07T11:11:05;24.30;99.90
25192;DHT22;13143;50.924;5.320;2023-09-07T11:13:31;24.30;99.90
25192;DHT22;13143;50.924;5.320;2023-09-07T11:15:58;24.40;99.90
25192;DHT22;13143;50.924;5.320;2023-09-07T11:18:24;24.40;99.90
25192;DHT22;13143;50.924;5.320;2023-09-07T11:20:51;24.40;99.90
25192;DHT22;13143;50.924;5.320;2023-09-07T11:23:18;24.40;99.90
25192;DHT22;13143;50.924;5.320;2023-09-07T11:25:44;24.50;99.90
25192;DHT22;13143;50.924;5.320;2023-09-07T11:28:10;24.50;99.90
25192;DHT22;13143;50.924;5.320;2023-09-07T11:30:52;24.50;99.90
25192;DHT22;13143;50.924;5.320;2023-09-07T11:33:19;24.60;99.90
25192;DHT22;13143;50.924;5.320;2023-09-07T11:35:44;24.60;99.90
25192;DHT22;13143;50.924;5.320;2023-09-07T11:38:13;24.60;99.90
25192;DHT22;13143;50.924;5.320;2023-09-07T11:40:39;24.70;99.90
25192;DHT22;13143;50.924;5.320;2023-09-07T11:43:05;24.80;99.90
25192;DHT22;13143;50.924;5.320;2023-09-07T11:45:31;24.80;99.90
25192;DHT22;13143;50.924;5.320;2023-09-07T11:47:57;24.80;99.90
25192;DHT22;13143;50.924;5.320;2023-09-07T11:50:24;24.80;99.90
25192;DHT22;13143;50.924;5.320;2023-09-07T11:52:55;24.90;99.90
25192;DHT22;13143;50.924;5.320;2023-09-07T11:55:22;24.90;99.90
25192;DHT22;13143;50.924;5.320;2023-09-07T11:57:47;25.00;99.90
25192;DHT22;13143;50.924;5.320;2023-09-07T12:00:13;25.00;99.90
25192;DHT22;13143;50.924;5.320;2023-09-07T12:02:40;25.00;99.90
25192;DHT22;13143;50.924;5.320;2023-09-07T12:05:07;25.10;99.90
25192;DHT22;13143;50.924;5.320;2023-09-07T12:07:35;25.20;99.90
25192;DHT22;13143;50.924;5.320;2023-09-07T12:10:01;25.20;99.90
25192;DHT22;13143;50.924;5.320;2023-09-07T12:12:26;25.20;99.90
25192;DHT22;13143;50.924;5.320;2023-09-07T12:14:52;25.20;99.90
25192;DHT22;13143;50.924;5.320;2023-09-07T12:17:18;25.30;99.90
25192;DHT22;13143;50.924;5.320;2023-09-07T12:19:45;25.30;99.90
25192;DHT22;13143;50.924;5.320;2023-09-07T12:22:12;25.40;99.90
25192;DHT22;13143;50.924;5.320;2023-09-07T12:24:37;25.40;99.90
25192;DHT22;13143;50.924;5.320;2023-09-07T12:27:03;25.50;99.90
25192;DHT22;13143;50.924;5.320;2023-09-07T12:29:29;25.50;99.90
25192;DHT22;13143;50.924;5.320;2023-09-07T12:31:55;25.50;99.90
25192;DHT22;13143;50.924;5.320;2023-09-07T12:34:21;25.60;99.90
25192;DHT22;13143;50.924;5.320;2023-09-07T12:36:46;25.60;99.90
25192;DHT22;13143;50.924;5.320;2023-09-07T12:39:13;25.70;99.90
25192;DHT22;13143;50.924;5.320;2023-09-07T12:41:39;25.70;99.90
25192;DHT22;13143;50.924;5.320;2023-09-07T12:44:06;25.70;99.90
25192;DHT22;13143;50.924;5.320;2023-09-07T12:46:32;25.80;99.90
25192;DHT22;13143;50.924;5.320;2023-09-07T12:48:57;25.80;99.90
25192;DHT22;13143;50.924;5.320;2023-09-07T12:51:23;25.90;99.90
25192;DHT22;13143;50.924;5.320;2023-09-07T12:53:49;25.90;99.90
25192;DHT22;13143;50.924;5.320;2023-09-07T12:56:15;25.90;99.90
25192;DHT22;13143;50.924;5.320;2023-09-07T12:58:42;26.00;99.90
25192;DHT22;13143;50.924;5.320;2023-09-07T13:01:08;26.10;99.90
25192;DHT22;13143;50.924;5.320;2023-09-07T13:03:37;26.10;99.90
25192;DHT22;13143;50.924;5.320;2023-09-07T13:06:03;26.10;99.90
25192;DHT22;13143;50.924;5.320;2023-09-07T13:08:29;26.20;99.90
25192;DHT22;13143;50.924;5.320;2023-09-07T13:10:55;26.20;99.90
25192;DHT22;13143;50.924;5.320;2023-09-07T13:13:22;26.20;99.90
25192;DHT22;13143;50.924;5.320;2023-09-07T13:15:50;26.20;99.90
25192;DHT22;13143;50.924;5.320;2023-09-07T13:18:15;26.30;99.90
25192;DHT22;13143;50.924;5.320;2023-09-07T13:20:41;26.40;99.90
25192;DHT22;13143;50.924;5.320;2023-09-07T13:23:07;26.40;99.90
25192;DHT22;13143;50.924;5.320;2023-09-07T13:25:33;26.40;99.90
25192;DHT22;13143;50.924;5.320;2023-09-07T13:27:59;26.50;99.90
25192;DHT22;13143;50.924;5.320;2023-09-07T13:30:24;26.50;99.90
25192;DHT22;13143;50.924;5.320;2023-09-07T13:32:50;26.50;99.90
25192;DHT22;13143;50.924;5.320;2023-09-07T13:35:16;26.60;99.90
25192;DHT22;13143;50.924;5.320;2023-09-07T13:37:42;26.60;99.90
25192;DHT22;13143;50.924;5.320;2023-09-07T13:40:08;26.60;99.90
25192;DHT22;13143;50.924;5.320;2023-09-07T13:42:34;26.70;99.90
25192;DHT22;13143;50.924;5.320;2023-09-07T13:45:00;26.70;99.90
25192;DHT22;13143;50.924;5.320;2023-09-07T13:47:26;26.80;99.90
25192;DHT22;13143;50.924;5.320;2023-09-07T13:49:51;26.80;99.90
25192;DHT22;13143;50.924;5.320;2023-09-07T13:52:17;26.80;99.90
25192;DHT22;13143;50.924;5.320;2023-09-07T13:54:43;26.90;99.90
25192;DHT22;13143;50.924;5.320;2023-09-07T13:57:09;26.90;99.90
25192;DHT22;13143;50.924;5.320;2023-09-07T13:59:35;26.90;99.90
25192;DHT22;13143;50.924;5.320;2023-09-07T14:02:01;27.00;99.90
25192;DHT22;13143;50.924;5.320;2023-09-07T14:04:27;27.00;99.90
25192;DHT22;13143;50.924;5.320;2023-09-07T14:06:54;27.00;99.90
25192;DHT22;13143;50.924;5.320;2023-09-07T14:09:19;27.10;99.90
25192;DHT22;13143;50.924;5.320;2023-09-07T14:11:48;27.10;99.90
25192;DHT22;13143;50.924;5.320;2023-09-07T14:14:14;27.10;99.90
25192;DHT22;13143;50.924;5.320;2023-09-07T14:16:41;27.20;99.90
25192;DHT22;13143;50.924;5.320;2023-09-07T14:19:06;27.20;99.90
25192;DHT22;13143;50.924;5.320;2023-09-07T14:21:32;27.20;99.90
25192;DHT22;13143;50.924;5.320;2023-09-07T14:23:57;27.30;99.90
25192;DHT22;13143;50.924;5.320;2023-09-07T14:26:23;27.40;99.90
25192;DHT22;13143;50.924;5.320;2023-09-07T14:28:49;27.40;99.90
25192;DHT22;13143;50.924;5.320;2023-09-07T14:31:16;27.40;99.90
25192;DHT22;13143;50.924;5.320;2023-09-07T14:33:41;27.40;99.90
25192;DHT22;13143;50.924;5.320;2023-09-07T14:36:08;27.40;99.90
25192;DHT22;13143;50.924;5.320;2023-09-07T14:38:35;27.50;99.90
25192;DHT22;13143;50.924;5.320;2023-09-07T14:41:06;27.50;99.90
25192;DHT22;13143;50.924;5.320;2023-09-07T14:43:33;27.50;99.90
25192;DHT22;13143;50.924;5.320;2023-09-07T14:45:58;27.50;99.90
25192;DHT22;13143;50.924;5.320;2023-09-07T14:48:24;27.60;99.90
25192;DHT22;13143;50.924;5.320;2023-09-07T14:50:50;27.60;99.90
25192;DHT22;13143;50.924;5.320;2023-09-07T14:53:16;27.70;99.90
25192;DHT22;13143;50.924;5.320;2023-09-07T14:55:44;27.70;99.90
25192;DHT22;13143;50.924;5.320;2023-09-07T14:58:09;27.70;99.90
25192;DHT22;13143;50.924;5.320;2023-09-07T15:00:36;27.80;99.90
25192;DHT22;13143;50.924;5.320;2023-09-07T15:03:02;27.80;99.90
25192;DHT22;13143;50.924;5.320;2023-09-07T15:05:27;27.80;99.90
25192;DHT22;13143;50.924;5.320;2023-09-07T15:07:54;27.90;99.90
25192;DHT22;13143;50.924;5.320;2023-09-07T15:10:20;27.90;99.90
25192;DHT22;13143;50.924;5.320;2023-09-07T15:12:45;27.90;99.90
25192;DHT22;13143;50.924;5.320;2023-09-07T15:15:11;28.00;99.90
25192;DHT22;13143;50.924;5.320;2023-09-07T15:17:46;27.90;99.90
25192;DHT22;13143;50.924;5.320;2023-09-07T15:20:11;28.00;99.90
25192;DHT22;13143;50.924;5.320;2023-09-07T15:22:37;28.00;99.90
25192;DHT22;13143;50.924;5.320;2023-09-07T15:25:03;28.10;99.90
25192;DHT22;13143;50.924;5.320;2023-09-07T15:27:29;28.20;99.90